createdAt,value
2023-03-30T00:00:23.446Z,99166.89
2023-03-30T00:05:57.182Z,99163.91
2023-03-30T00:11:23.580Z,99163.34
2023-03-30T00:16:47.583Z,99161.94
2023-03-30T00:22:13.257Z,99152.45
2023-03-30T00:27:38.318Z,99141.36
2023-03-30T00:33:03.242Z,99139.66
2023-03-30T00:38:27.611Z,99129.05
2023-03-30T00:44:04.735Z,99126.59
2023-03-30T00:49:29.541Z,99127.69
2023-03-30T00:54:58.467Z,99118.34
2023-03-30T01:00:24.103Z,99114.74
2023-03-30T01:05:49.288Z,99114.65
2023-03-30T01:11:13.238Z,99116.58
2023-03-30T01:16:43.844Z,99109.67
2023-03-30T01:22:41.853Z,99092.56
2023-03-30T01:28:07.217Z,99087.77
2023-03-30T01:33:50.570Z,99084.55
2023-03-30T01:39:22.009Z,99083.85
2023-03-30T01:45:08.024Z,99086.02
2023-03-30T01:50:41.311Z,99074.55
2023-03-30T01:56:08.846Z,99046.63
2023-03-30T02:01:38.466Z,99048.73
2023-03-30T02:07:11.656Z,99026.20
2023-03-30T02:12:36.752Z,99026.91
2023-03-30T02:18:01.049Z,99016.14
2023-03-30T02:23:32.253Z,99021.54
2023-03-30T02:28:56.697Z,99021.30
2023-03-30T02:34:43.974Z,99009.16
2023-03-30T02:40:20.433Z,98984.08
2023-03-30T02:46:11.207Z,98977.07
2023-03-30T02:51:56.451Z,98943.29
2023-03-30T02:57:30.615Z,98911.21
2023-03-30T03:03:35.705Z,98969.38
2023-03-30T03:09:01.070Z,98994.78
2023-03-30T03:14:26.886Z,98988.50
2023-03-30T03:19:51.484Z,98964.75
2023-03-30T03:25:16.946Z,98952.45
2023-03-30T03:31:02.836Z,98944.45
2023-03-30T03:36:30.990Z,98924.23
2023-03-30T03:41:56.038Z,98922.36
2023-03-30T03:47:20.565Z,98920.29
2023-03-30T03:52:44.768Z,98902.33
2023-03-30T03:58:09.051Z,98892.34
2023-03-30T04:03:33.565Z,98888.54
2023-03-30T04:08:57.462Z,98886.49
2023-03-30T04:14:39.428Z,98875.08
2023-03-30T04:20:14.112Z,98870.13
2023-03-30T04:25:54.843Z,98856.52
2023-03-30T04:31:38.894Z,98839.95
2023-03-30T04:37:18.600Z,98841.86
2023-03-30T04:43:03.057Z,98851.94
2023-03-30T04:48:48.625Z,98843.40
2023-03-30T04:54:45.833Z,98838.82
2023-03-30T05:00:45.360Z,98841.39
2023-03-30T05:06:36.044Z,98826.70
2023-03-30T05:12:18.953Z,98815.98
2023-03-30T05:18:02.428Z,98819.26
2023-03-30T05:23:40.258Z,98814.98
2023-03-30T05:29:24.014Z,98809.80
2023-03-30T05:35:17.769Z,98815.42
2023-03-30T05:41:00.321Z,98808.89
2023-03-30T05:46:40.163Z,98813.46
2023-03-30T05:52:43.031Z,98810.04
2023-03-30T05:58:26.541Z,98816.71
2023-03-30T06:04:09.649Z,98822.23
2023-03-30T06:09:34.917Z,98820.64
2023-03-30T06:15:03.384Z,98816.65
2023-03-30T06:20:42.703Z,98813.86
2023-03-30T06:26:07.869Z,98804.98
2023-03-30T06:31:34.746Z,98805.26
2023-03-30T06:37:22.413Z,98792.20
2023-03-30T06:42:47.376Z,98791.64
2023-03-30T06:48:47.137Z,98784.66
2023-03-30T06:54:34.355Z,98774.76
2023-03-30T07:00:06.873Z,98762.16
2023-03-30T07:05:38.284Z,98743.75
2023-03-30T07:11:11.869Z,98724.92
2023-03-30T07:16:36.722Z,98728.73
2023-03-30T07:22:01.394Z,98725.85
2023-03-30T07:27:25.901Z,98731.07
2023-03-30T07:32:52.172Z,98730.09
2023-03-30T07:38:18.062Z,98721.23
2023-03-30T07:43:46.803Z,98719.12
2023-03-30T07:49:11.566Z,98716.38
2023-03-30T07:54:36.681Z,98721.95
2023-03-30T08:00:14.313Z,98704.20
2023-03-30T08:06:07.053Z,98685.42
2023-03-30T08:11:36.585Z,98682.98
2023-03-30T08:17:01.659Z,98672.20
2023-03-30T08:22:25.992Z,98679.42
2023-03-30T08:27:50.291Z,98673.85
2023-03-30T08:33:16.244Z,98668.48
2023-03-30T08:38:41.504Z,98661.83
2023-03-30T08:44:11.034Z,98650.13
2023-03-30T08:49:43.036Z,98640.98
2023-03-30T08:55:11.294Z,98629.65
2023-03-30T09:00:47.158Z,98621.77
2023-03-30T09:06:22.146Z,98610.48
2023-03-30T09:11:49.922Z,98613.27
2023-03-30T09:17:33.022Z,98600.02
2023-03-30T09:23:02.690Z,98595.27
2023-03-30T09:28:48.703Z,98588.02
2023-03-30T09:34:26.172Z,98566.95
2023-03-30T09:39:51.183Z,98560.59
2023-03-30T09:45:22.392Z,98563.33
2023-03-30T09:50:48.025Z,98580.81
2023-03-30T09:56:29.062Z,98571.23
2023-03-30T10:01:53.059Z,98582.70
2023-03-30T10:07:32.196Z,98584.84
2023-03-30T10:13:02.754Z,98584.66
2023-03-30T10:18:41.656Z,98583.74
2023-03-30T10:24:10.280Z,98594.46
2023-03-30T10:29:34.890Z,98598.58
2023-03-30T10:35:02.293Z,98601.92
2023-03-30T10:40:33.809Z,98616.50
2023-03-30T10:52:09.961Z,98634.02
2023-03-30T10:57:52.128Z,98647.13
2023-03-30T11:03:32.922Z,98659.02
2023-03-30T11:09:01.885Z,98653.12
2023-03-30T11:14:45.247Z,98661.95
2023-03-30T11:20:28.344Z,98647.21
2023-03-30T11:25:52.367Z,98661.39
2023-03-30T11:31:45.647Z,98667.30
2023-03-30T11:37:31.864Z,98653.30
2023-03-30T11:42:56.780Z,98654.79
2023-03-30T11:48:33.458Z,98650.17
2023-03-30T11:54:39.059Z,98660.23
2023-03-30T12:00:28.682Z,98656.29
2023-03-30T12:06:07.299Z,98652.24
2023-03-30T12:12:04.175Z,98650.56
2023-03-30T12:17:37.193Z,98635.77
2023-03-30T12:23:34.423Z,98635.34
2023-03-30T12:29:48.151Z,98619.47
2023-03-30T12:34:48.649Z,98613.83
2023-03-30T12:40:22.989Z,98602.45
2023-03-30T12:46:02.956Z,98599.94
2023-03-30T12:52:38.819Z,98592.19
2023-03-30T12:58:21.374Z,98581.90
2023-03-30T13:03:52.894Z,98576.55
2023-03-30T13:09:20.167Z,98562.04
2023-03-30T13:14:47.376Z,98544.35
2023-03-30T13:20:28.131Z,98532.34
2023-03-30T13:26:02.800Z,98522.77
2023-03-30T13:31:46.146Z,98487.02
2023-03-30T13:37:09.940Z,98496.42
2023-03-30T13:43:12.822Z,98500.78
2023-03-30T13:48:55.332Z,98507.18
2023-03-30T13:54:26.855Z,98485.11
2023-03-30T14:00:02.642Z,98474.58
2023-03-30T14:05:33.441Z,98454.01
2023-03-30T14:10:58.498Z,98452.14
2023-03-30T14:16:35.379Z,98441.44
2023-03-30T14:22:11.280Z,98449.95
2023-03-30T14:27:38.798Z,98457.35
2023-03-30T14:33:12.180Z,98450.46
2023-03-30T14:38:41.602Z,98457.58
2023-03-30T14:44:12.693Z,98456.66
2023-03-30T14:49:37.893Z,98447.87
2023-03-30T14:55:08.590Z,98430.20
2023-03-30T15:00:35.877Z,98429.91
2023-03-30T15:06:05.989Z,98429.88
2023-03-30T15:11:34.821Z,98429.96
2023-03-30T15:16:59.474Z,98432.25
2023-03-30T15:22:29.485Z,98417.77
2023-03-30T15:28:12.799Z,98415.39
2023-03-30T15:33:47.286Z,98410.61
2023-03-30T15:39:37.124Z,98412.05
2023-03-30T15:45:13.326Z,98409.27
2023-03-30T15:50:37.871Z,98411.84
2023-03-30T15:56:03.691Z,98391.77
2023-03-30T16:02:03.190Z,98393.80
2023-03-30T16:07:30.000Z,98395.61
2023-03-30T16:12:58.897Z,98389.64
2023-03-30T16:18:23.158Z,98377.14
2023-03-30T16:23:47.458Z,98373.32
2023-03-30T16:29:21.836Z,98394.86
2023-03-30T16:34:46.726Z,98394.98
2023-03-30T16:40:33.307Z,98382.08
2023-03-30T16:45:57.674Z,98386.61
2023-03-30T16:51:21.941Z,98387.08
2023-03-30T16:56:46.842Z,98392.11
2023-03-30T17:02:16.812Z,98408.82
2023-03-30T17:07:44.697Z,98424.86
2023-03-30T17:13:09.714Z,98441.31
2023-03-30T17:18:35.029Z,98455.58
2023-03-30T17:23:59.176Z,98484.52
2023-03-30T17:29:23.269Z,98499.36
2023-03-30T17:34:47.788Z,98494.08
2023-03-30T17:40:31.771Z,98518.84
2023-03-30T17:45:56.375Z,98546.02
2023-03-30T17:51:20.886Z,98559.17
2023-03-30T17:56:45.791Z,98577.29
2023-03-30T18:02:09.812Z,98592.99
2023-03-30T18:07:34.480Z,98587.65
2023-03-30T18:12:59.484Z,98582.67
2023-03-30T18:18:27.855Z,98583.31
2023-03-30T18:23:51.824Z,98585.95
2023-03-30T18:29:23.082Z,98598.27
2023-03-30T18:34:46.975Z,98592.35
2023-03-30T18:40:33.230Z,98592.22
2023-03-30T18:46:01.693Z,98594.42
2023-03-30T18:51:27.497Z,98596.56
2023-03-30T18:56:52.223Z,98614.95
2023-03-30T19:02:16.665Z,98626.84
2023-03-30T19:07:41.384Z,98625.45
2023-03-30T19:13:06.578Z,98631.44
2023-03-30T19:18:32.245Z,98635.46
2023-03-30T19:23:57.419Z,98628.25
2023-03-30T19:29:21.966Z,98617.88
2023-03-30T19:34:46.757Z,98620.02
2023-03-30T19:40:16.678Z,98612.83
2023-03-30T19:45:41.487Z,98605.21
2023-03-30T19:51:07.821Z,98608.27
2023-03-30T19:56:32.654Z,98614.41
2023-03-30T20:01:57.016Z,98613.67
2023-03-30T20:07:24.723Z,98611.98
2023-03-30T20:12:50.060Z,98608.63
2023-03-30T20:18:14.617Z,98599.60
2023-03-30T20:23:39.272Z,98596.15
2023-03-30T20:29:05.393Z,98602.73
2023-03-30T20:34:35.351Z,98609.11
2023-03-30T20:40:04.154Z,98612.22
2023-03-30T20:45:30.314Z,98611.84
2023-03-30T20:50:56.218Z,98623.05
2023-03-30T20:56:22.590Z,98623.80
2023-03-30T21:01:49.578Z,98629.91
2023-03-30T21:07:16.964Z,98626.81
2023-03-30T21:12:42.162Z,98621.99
2023-03-30T21:18:06.810Z,98619.17
2023-03-30T21:23:31.616Z,98621.67
2023-03-30T21:28:57.533Z,98630.20
2023-03-30T21:34:22.793Z,98626.90
2023-03-30T21:39:47.361Z,98632.11
2023-03-30T21:45:12.497Z,98628.73
2023-03-30T21:50:36.502Z,98627.89
2023-03-30T21:56:01.362Z,98629.21
2023-03-30T22:01:27.766Z,98633.84
2023-03-30T22:06:53.135Z,98634.52
2023-03-30T22:12:18.177Z,98631.17
2023-03-30T22:17:42.178Z,98629.01
2023-03-30T22:23:06.543Z,98620.80
2023-03-30T22:28:30.946Z,98621.07
2023-03-30T22:33:57.367Z,98617.04
2023-03-30T22:39:22.299Z,98609.92
2023-03-30T22:44:46.728Z,98605.72
2023-03-30T22:50:11.537Z,98607.42
2023-03-30T22:55:36.010Z,98602.90
2023-03-30T23:01:10.796Z,98601.95
2023-03-30T23:06:37.109Z,98600.30
2023-03-30T23:12:01.919Z,98596.42
2023-03-30T23:17:30.499Z,98590.95
2023-03-30T23:22:54.888Z,98583.56
2023-03-30T23:28:19.424Z,98583.38
2023-03-30T23:33:44.258Z,98584.34
2023-03-30T23:39:09.790Z,98579.10
2023-03-30T23:44:34.706Z,98576.63
2023-03-30T23:49:59.005Z,98570.88
2023-03-30T23:55:25.056Z,98566.82
